sim
Sign-in with your pilot id or email,
or register
Callsign
Passwort

Schedule Details

Flight Number: OEG0011
Departure: Andøya Airport (ENAN) at 20:00
Arrival: Bardufoss Airport (ENDU) at 20:30
Route: DCT AND Z203 TRO TRO5T

Weather Information
Getting current METAR information for ENAN 161750Z AUTO 20008KT 9999 FEW007/// SCT012/// 01/00 Q1016
Getting current METAR information for ENDU 161750Z AUTO 26004KT 230V290 9999 OVC028/// 01/M01 Q1016 RMK WIND 1100FT 21006KT WIND 2200FT 27013KT

Schedule Frequency

Route Map